Aviation Digital Data Service (ADDS)

Output produced by METARs form (0243 UTC 24 July 2017)
found at http://www.aviationweather.gov/adds/metars/
 
TAF SABE 232300Z 2400/2424 11010KT CAVOK TX16/2419Z TN13/2410Z 
     BECMG 2403/2406 16010KT 7000 RA BKN010 OVC040 
     PROB40 2408/2412 4000 TSRA FEW035CB 
     BECMG 2412/2414 16010KT 9999 OVC020 
       
TAF SACO 232300Z 2400/2424 14010KT 9999 BKN060 TX23/05/2410Z 
     PROB30 
     TEMPO 2401/2405 18010KT 5000 -RA SCT012 OVC020 
     BECMG 2406/2410 18005KT 9999 BKN020
       
TAF SAAR 232300Z 2400/2424 09005KT CAVOK TX19/2419Z TN15/2410Z 
     BECMG 2404/2406 18010KT 6000 BKN020 OVC100
       
TAF SABE 232300Z 2400/2424 11010KT CAVOK TX16/2419Z TN13/2410Z 
     BECMG 2403/2406 16010KT 7000 RA BKN010 OVC040 
     PROB40 2408/2412 4000 TSRA FEW035CB 
     BECMG 2412/2414 16010KT 9999 OVC020 
       
TAF SACO 232300Z 2400/2424 14010KT 9999 BKN060 TX23/05/2410Z 
     PROB30 
     TEMPO 2401/2405 18010KT 5000 -RA SCT012 OVC020 
     BECMG 2406/2410 18005KT 9999 BKN020
       
TAF SADF 232300Z 2400/2424 11005KT 9000 NSC TX17/2418Z TN13/2411Z 
     BECMG 2403/2406 18005KT 5000 RA SCT020 OVC050 
     PROB40 2408/2412 4000 TSRA FEW035CB 
     BECMG 2412/2414 14010KT 9999 SCT015 BKN025
       
TAF SAEZ 232300Z 2400/2424 15006KT CAVOK TX17/2418Z TN12/2410Z 
     BECMG 2405/2407 7000 RA BKN020 OVC040 
     BECMG 2416/2418 14012KT 8000 SCT030 
     BECMG 2422/2424 FEW040
       
TAF SAME 232300Z 2400/2424 16010KT 9999 FEW040 SCT070 TX17/2420Z TN03/2410Z
       
TAF SANR 232300Z 2400/2424 18005KT CAVOK TX24/2419Z TN08/2410Z 
     BECMG 2322/2402 20010KT CAVOK
       
TAF SANT 232300Z 2400/2424 18005KT 6000 NSC TX24/2419Z TN09/2410Z 
     BECMG 2323/2403 23010KT 7000 NSC
       
TAF SARE 232300Z 2400/2424 05010KT 5000 FU NSC TX33/2418Z TN20/2409Z
       
TAF SARF 232300Z 2400/2424 05010KT 5000 FU NSC TX33/2418Z TN21/2409Z
       
TAF SARI 232300Z 2400/2424 05010KT CAVOK TX30/2418Z TN17/2409Z
       
TAF SARP 232300Z 2400/2424 05010KT CAVOK TX32/2418Z TN19/2409Z
       
TAF SASA 232300Z 2400/2424 05010KT CAVOK TX26/2419Z TN03/2410Z 
     BECMG 2402/2406 14010KT 9999 SCT020
       
TAF SASJ 232300Z 2400/2424 VRB02KT CAVOK TX26/2419Z TN07/2410Z 
     BECMG 2402/2406 20010KT 9999 SCT025
       
TAF SAVC 232300Z 2400/2424 30018G28KT CAVOK TX12/2419Z TN06/2410Z 
     BECMG 2406/2408 30025G40KT 9999 FEW030 BKN100 
     PROB30 
     TEMPO 2409/2413 -SHRA SCT030 OVC060 
     PROB30 
     TEMPO 2415/2419 27035G50KT 
     BECMG 2421/2423 29020G30KT CAVOK
       
TAF SAWE 232300Z 2400/2424 29015KT CAVOK TX08/2419Z TN02/2410Z 
     BECMG 2405/2407 34008KT 9999 FEW030 SCT040 
     BECMG 2414/2416 27015KT 9999 SCT030 BKN070 
     BECMG 2420/2422 29012KT CAVOK
       
TAF SAWG 232300Z 2400/2424 32015KT 9999 FEW030 BKN090 TX10/2419Z TN03/2410Z TAF SAWE 232300Z 2400/2424 29015KT CAVOK TX08/2419Z TN02/2410Z 
     BECMG 2405/2407 34008KT 9999 FEW030 SCT040 
     BECMG 2414/2416 27015KT 9999 SCT030 BKN070 
     BECMG 2420/2422 29012KT CAVOK
       
TAF SAWH 232300Z 2400/2424 25010KT 9999 FEW030 TX04/2419Z TNM01/2410Z 
     PROB30 
     TEMPO 2414/2418 6000 -RA BKN030 SCT060 
     BECMG 2416/2418 30012KT 9999 SCT030 BKN080
       
TAF SAZM 232300Z 2400/2424 20005KT 7000 RA BKN020 BKN030 OVC050 TX14/2419Z TN09/2410Z 
     BECMG 2403/2406 VRB03KT CAVOK 
     BECMG 2408/2410 5000 BR BKN010 
     BECMG 2413/2414 14005KT 9999 SCT020
       
TAF SAZN 232300Z 2400/2424 VRB03KT CAVOK TX13/2418Z TN04/2410Z 
     BECMG 2406/2408 27005KT 
     BECMG 2412/2414 27010KT 
       
TAF SAZS 232300Z 2400/2424 32015KT 8000 -RA BKN030 BKN060 TX03/2419Z TN00/2410Z 
     BECMG 2406/2408 29010KT 3000 SN OVC010 
     TEMPO 2408/2411 0900 +SN OVC008 
     BECMG 2412/2414 29020KT 9999 BKN030 
       
TAF SARI 232300Z 2400/2424 05010KT CAVOK TX30/2418Z TN17/2409Z
       
TAF SAVC 232300Z 2400/2424 30018G28KT CAVOK TX12/2419Z TN06/2410Z 
     BECMG 2406/2408 30025G40KT 9999 FEW030 BKN100 
     PROB30 
     TEMPO 2409/2413 -SHRA SCT030 OVC060 
     PROB30 
     TEMPO 2415/2419 27035G50KT 
     BECMG 2421/2423 29020G30KT CAVOK
       
TAF SAME 232300Z 2400/2424 16010KT 9999 FEW040 SCT070 TX17/2420Z TN03/2410Z
       
TAF SARF 232300Z 2400/2424 05010KT 5000 FU NSC TX33/2418Z TN21/2409Z
       
TAF SASJ 232300Z 2400/2424 VRB02KT CAVOK TX26/2419Z TN07/2410Z 
     BECMG 2402/2406 20010KT 9999 SCT025
       
TAF SASA 232300Z 2400/2424 05010KT CAVOK TX26/2419Z TN03/2410Z 
     BECMG 2402/2406 14010KT 9999 SCT020
       
TAF SAZM 232300Z 2400/2424 20005KT 7000 RA BKN020 BKN030 OVC050 TX14/2419Z TN09/2410Z 
     BECMG 2403/2406 VRB03KT CAVOK 
     BECMG 2408/2410 5000 BR BKN010 
     BECMG 2413/2414 14005KT 9999 SCT020
       
TAF SAEZ 232300Z 2400/2424 15006KT CAVOK TX17/2418Z TN12/2410Z 
     BECMG 2405/2407 7000 RA BKN020 OVC040 
     BECMG 2416/2418 14012KT 8000 SCT030 
     BECMG 2422/2424 FEW040
       
TAF SARP 232300Z 2400/2424 05010KT CAVOK TX32/2418Z TN19/2409Z
       
TAF SAZN 232300Z 2400/2424 VRB03KT CAVOK TX13/2418Z TN04/2410Z 
     BECMG 2406/2408 27005KT 
     BECMG 2412/2414 27010KT 
       
TAF SARE 232300Z 2400/2424 05010KT 5000 FU NSC TX33/2418Z TN20/2409Z
       
TAF SAWG 232300Z 2400/2424 32015KT 9999 FEW030 BKN090 TX10/2419Z TN03/2410Z TAF SAWE 232300Z 2400/2424 29015KT CAVOK TX08/2419Z TN02/2410Z 
     BECMG 2405/2407 34008KT 9999 FEW030 SCT040 
     BECMG 2414/2416 27015KT 9999 SCT030 BKN070 
     BECMG 2420/2422 29012KT CAVOK
       
TAF SAWE 232300Z 2400/2424 29015KT CAVOK TX08/2419Z TN02/2410Z 
     BECMG 2405/2407 34008KT 9999 FEW030 SCT040 
     BECMG 2414/2416 27015KT 9999 SCT030 BKN070 
     BECMG 2420/2422 29012KT CAVOK
       
TAF SAAR 232300Z 2400/2424 09005KT CAVOK TX19/2419Z TN15/2410Z 
     BECMG 2404/2406 18010KT 6000 BKN020 OVC100
       
TAF SAAR 232300Z 2400/2424 09005KT CAVOK TX19/2419Z TN15/2410Z 
     BECMG 2404/2406 18010KT 6000 BKN020 OVC100
       
TAF SABE 232300Z 2400/2424 11010KT CAVOK TX16/2419Z TN13/2410Z 
     BECMG 2403/2406 16010KT 7000 RA BKN010 OVC040 
     PROB40 2408/2412 4000 TSRA FEW035CB 
     BECMG 2412/2414 16010KT 9999 OVC020 
       
TAF SACO 232300Z 2400/2424 14010KT 9999 BKN060 TX23/05/2410Z 
     PROB30 
     TEMPO 2401/2405 18010KT 5000 -RA SCT012 OVC020 
     BECMG 2406/2410 18005KT 9999 BKN020
       
TAF SADF 232300Z 2400/2424 11005KT 9000 NSC TX17/2418Z TN13/2411Z 
     BECMG 2403/2406 18005KT 5000 RA SCT020 OVC050 
     PROB40 2408/2412 4000 TSRA FEW035CB 
     BECMG 2412/2414 14010KT 9999 SCT015 BKN025
       
TAF SAEZ 232300Z 2400/2424 15006KT CAVOK TX17/2418Z TN12/2410Z 
     BECMG 2405/2407 7000 RA BKN020 OVC040 
     BECMG 2416/2418 14012KT 8000 SCT030 
     BECMG 2422/2424 FEW040
       
TAF SAME 232300Z 2400/2424 16010KT 9999 FEW040 SCT070 TX17/2420Z TN03/2410Z
       
TAF SANR 232300Z 2400/2424 18005KT CAVOK TX24/2419Z TN08/2410Z 
     BECMG 2322/2402 20010KT CAVOK
       
TAF SANT 232300Z 2400/2424 18005KT 6000 NSC TX24/2419Z TN09/2410Z 
     BECMG 2323/2403 23010KT 7000 NSC
       
TAF SARE 232300Z 2400/2424 05010KT 5000 FU NSC TX33/2418Z TN20/2409Z
       
TAF SARF 232300Z 2400/2424 05010KT 5000 FU NSC TX33/2418Z TN21/2409Z
       
TAF SARI 232300Z 2400/2424 05010KT CAVOK TX30/2418Z TN17/2409Z
       
TAF SARP 232300Z 2400/2424 05010KT CAVOK TX32/2418Z TN19/2409Z
       
TAF SASA 232300Z 2400/2424 05010KT CAVOK TX26/2419Z TN03/2410Z 
     BECMG 2402/2406 14010KT 9999 SCT020
       
TAF SASJ 232300Z 2400/2424 VRB02KT CAVOK TX26/2419Z TN07/2410Z 
     BECMG 2402/2406 20010KT 9999 SCT025
       
TAF SAVC 232300Z 2400/2424 30018G28KT CAVOK TX12/2419Z TN06/2410Z 
     BECMG 2406/2408 30025G40KT 9999 FEW030 BKN100 
     PROB30 
     TEMPO 2409/2413 -SHRA SCT030 OVC060 
     PROB30 
     TEMPO 2415/2419 27035G50KT 
     BECMG 2421/2423 29020G30KT CAVOK
       
TAF SAWE 232300Z 2400/2424 29015KT CAVOK TX08/2419Z TN02/2410Z 
     BECMG 2405/2407 34008KT 9999 FEW030 SCT040 
     BECMG 2414/2416 27015KT 9999 SCT030 BKN070 
     BECMG 2420/2422 29012KT CAVOK
       
TAF SAWG 232300Z 2400/2424 32015KT 9999 FEW030 BKN090 TX10/2419Z TN03/2410Z TAF SAWE 232300Z 2400/2424 29015KT CAVOK TX08/2419Z TN02/2410Z 
     BECMG 2405/2407 34008KT 9999 FEW030 SCT040 
     BECMG 2414/2416 27015KT 9999 SCT030 BKN070 
     BECMG 2420/2422 29012KT CAVOK
       
TAF SAWH 232300Z 2400/2424 25010KT 9999 FEW030 TX04/2419Z TNM01/2410Z 
     PROB30 
     TEMPO 2414/2418 6000 -RA BKN030 SCT060 
     BECMG 2416/2418 30012KT 9999 SCT030 BKN080
       
TAF SAZM 232300Z 2400/2424 20005KT 7000 RA BKN020 BKN030 OVC050 TX14/2419Z TN09/2410Z 
     BECMG 2403/2406 VRB03KT CAVOK 
     BECMG 2408/2410 5000 BR BKN010 
     BECMG 2413/2414 14005KT 9999 SCT020
       
TAF SAZN 232300Z 2400/2424 VRB03KT CAVOK TX13/2418Z TN04/2410Z 
     BECMG 2406/2408 27005KT 
     BECMG 2412/2414 27010KT 
       
TAF SAZS 232300Z 2400/2424 32015KT 8000 -RA BKN030 BKN060 TX03/2419Z TN00/2410Z 
     BECMG 2406/2408 29010KT 3000 SN OVC010 
     TEMPO 2408/2411 0900 +SN OVC008 
     BECMG 2412/2414 29020KT 9999 BKN030 
       
TAF SASA 232300Z 2400/2424 05010KT CAVOK TX26/2419Z TN03/2410Z 
     BECMG 2402/2406 14010KT 9999 SCT020
       
TAF SAZS 232300Z 2400/2424 32015KT 8000 -RA BKN030 BKN060 TX03/2419Z TN00/2410Z 
     BECMG 2406/2408 29010KT 3000 SN OVC010 
     TEMPO 2408/2411 0900 +SN OVC008 
     BECMG 2412/2414 29020KT 9999 BKN030 
       
TAF SADF 232300Z 2400/2424 11005KT 9000 NSC TX17/2418Z TN13/2411Z 
     BECMG 2403/2406 18005KT 5000 RA SCT020 OVC050 
     PROB40 2408/2412 4000 TSRA FEW035CB 
     BECMG 2412/2414 14010KT 9999 SCT015 BKN025
       
TAF SAAR 232300Z 2400/2424 09005KT CAVOK TX19/2419Z TN15/2410Z 
     BECMG 2404/2406 18010KT 6000 BKN020 OVC100
       
TAF SABE 232300Z 2400/2424 11010KT CAVOK TX16/2419Z TN13/2410Z 
     BECMG 2403/2406 16010KT 7000 RA BKN010 OVC040 
     PROB40 2408/2412 4000 TSRA FEW035CB 
     BECMG 2412/2414 16010KT 9999 OVC020 
       
TAF SACO 232300Z 2400/2424 14010KT 9999 BKN060 TX23/05/2410Z 
     PROB30 
     TEMPO 2401/2405 18010KT 5000 -RA SCT012 OVC020 
     BECMG 2406/2410 18005KT 9999 BKN020
       
TAF SADF 232300Z 2400/2424 11005KT 9000 NSC TX17/2418Z TN13/2411Z 
     BECMG 2403/2406 18005KT 5000 RA SCT020 OVC050 
     PROB40 2408/2412 4000 TSRA FEW035CB 
     BECMG 2412/2414 14010KT 9999 SCT015 BKN025
       
TAF SAEZ 232300Z 2400/2424 15006KT CAVOK TX17/2418Z TN12/2410Z 
     BECMG 2405/2407 7000 RA BKN020 OVC040 
     BECMG 2416/2418 14012KT 8000 SCT030 
     BECMG 2422/2424 FEW040
       
TAF SAME 232300Z 2400/2424 16010KT 9999 FEW040 SCT070 TX17/2420Z TN03/2410Z
       
TAF SANR 232300Z 2400/2424 18005KT CAVOK TX24/2419Z TN08/2410Z 
     BECMG 2322/2402 20010KT CAVOK
       
TAF SANT 232300Z 2400/2424 18005KT 6000 NSC TX24/2419Z TN09/2410Z 
     BECMG 2323/2403 23010KT 7000 NSC
       
TAF SARE 232300Z 2400/2424 05010KT 5000 FU NSC TX33/2418Z TN20/2409Z
       
TAF SARF 232300Z 2400/2424 05010KT 5000 FU NSC TX33/2418Z TN21/2409Z
       
TAF SARI 232300Z 2400/2424 05010KT CAVOK TX30/2418Z TN17/2409Z
       
TAF SARP 232300Z 2400/2424 05010KT CAVOK TX32/2418Z TN19/2409Z
       
TAF SASA 232300Z 2400/2424 05010KT CAVOK TX26/2419Z TN03/2410Z 
     BECMG 2402/2406 14010KT 9999 SCT020
       
TAF SASJ 232300Z 2400/2424 VRB02KT CAVOK TX26/2419Z TN07/2410Z 
     BECMG 2402/2406 20010KT 9999 SCT025
       
TAF SAVC 232300Z 2400/2424 30018G28KT CAVOK TX12/2419Z TN06/2410Z 
     BECMG 2406/2408 30025G40KT 9999 FEW030 BKN100 
     PROB30 
     TEMPO 2409/2413 -SHRA SCT030 OVC060 
     PROB30 
     TEMPO 2415/2419 27035G50KT 
     BECMG 2421/2423 29020G30KT CAVOK
       
TAF SAWE 232300Z 2400/2424 29015KT CAVOK TX08/2419Z TN02/2410Z 
     BECMG 2405/2407 34008KT 9999 FEW030 SCT040 
     BECMG 2414/2416 27015KT 9999 SCT030 BKN070 
     BECMG 2420/2422 29012KT CAVOK
       
TAF SAWG 232300Z 2400/2424 32015KT 9999 FEW030 BKN090 TX10/2419Z TN03/2410Z TAF SAWE 232300Z 2400/2424 29015KT CAVOK TX08/2419Z TN02/2410Z 
     BECMG 2405/2407 34008KT 9999 FEW030 SCT040 
     BECMG 2414/2416 27015KT 9999 SCT030 BKN070 
     BECMG 2420/2422 29012KT CAVOK
       
TAF SAWH 232300Z 2400/2424 25010KT 9999 FEW030 TX04/2419Z TNM01/2410Z 
     PROB30 
     TEMPO 2414/2418 6000 -RA BKN030 SCT060 
     BECMG 2416/2418 30012KT 9999 SCT030 BKN080
       
TAF SAZM 232300Z 2400/2424 20005KT 7000 RA BKN020 BKN030 OVC050 TX14/2419Z TN09/2410Z 
     BECMG 2403/2406 VRB03KT CAVOK 
     BECMG 2408/2410 5000 BR BKN010 
     BECMG 2413/2414 14005KT 9999 SCT020
       
TAF SAZN 232300Z 2400/2424 VRB03KT CAVOK TX13/2418Z TN04/2410Z 
     BECMG 2406/2408 27005KT 
     BECMG 2412/2414 27010KT 
       
TAF SAZS 232300Z 2400/2424 32015KT 8000 -RA BKN030 BKN060 TX03/2419Z TN00/2410Z 
     BECMG 2406/2408 29010KT 3000 SN OVC010 
     TEMPO 2408/2411 0900 +SN OVC008 
     BECMG 2412/2414 29020KT 9999 BKN030 
       
TAF SANT 232300Z 2400/2424 18005KT 6000 NSC TX24/2419Z TN09/2410Z 
     BECMG 2323/2403 23010KT 7000 NSC
       
TAF SAWH 232300Z 2400/2424 25010KT 9999 FEW030 TX04/2419Z TNM01/2410Z 
     PROB30 
     TEMPO 2414/2418 6000 -RA BKN030 SCT060 
     BECMG 2416/2418 30012KT 9999 SCT030 BKN080